Time,TemperatureF,DewpointF,PressureIn,WindDirection,WindDirectionDegrees,WindSpeedMPH,WindSpeedGustMPH,Humidity,HourlyPrecipIn,Conditions,Clouds,dailyrainin,SolarRadiationWatts/m^2,SoftwareType,DateUTC
2013-01-27 00:01:00,17.0,7.0,-100.00,SSE,161,8.0,13.0,64,0.00,,,0.00,0.000000,,2013-01-27 06:01:00,
2013-01-27 00:21:00,17.0,7.0,-100.00,SSE,156,7.0,18.0,64,0.00,,,0.00,0.000000,,2013-01-27 06:21:00,
2013-01-27 00:32:00,17.0,7.0,-100.00,SSE,156,7.0,18.0,64,0.00,,,0.00,0.000000,,2013-01-27 06:32:00,
2013-01-27 00:42:00,17.0,7.0,-100.00,SSE,156,7.0,18.0,64,0.00,,,0.00,0.000000,,2013-01-27 06:42:00,
2013-01-27 00:52:00,17.0,7.0,-100.00,SSE,156,7.0,18.0,64,0.00,,,0.00,0.000000,,2013-01-27 06:52:00,
2013-01-27 01:01:00,17.0,7.0,-100.00,SSE,156,7.0,18.0,64,0.00,,,0.00,0.000000,,2013-01-27 07:01:00,
2013-01-27 01:21:00,16.0,7.0,-100.00,SSE,162,6.0,14.0,66,0.00,,,0.00,0.000000,,2013-01-27 07:21:00,
2013-01-27 01:32:00,16.0,7.0,-100.00,SSE,162,6.0,14.0,66,0.00,,,0.00,0.000000,,2013-01-27 07:32:00,
2013-01-27 01:42:00,16.0,7.0,-100.00,SSE,162,6.0,14.0,66,0.00,,,0.00,0.000000,,2013-01-27 07:42:00,
2013-01-27 01:52:00,16.0,7.0,-100.00,SSE,162,6.0,14.0,66,0.00,,,0.00,0.000000,,2013-01-27 07:52:00,
2013-01-27 02:01:00,16.0,7.0,-100.00,SSE,162,6.0,14.0,66,0.00,,,0.00,0.000000,,2013-01-27 08:01:00,
2013-01-27 02:02:00,17.0,8.0,-100.00,SSE,147,6.0,15.0,67,0.00,,,0.00,0.000000,,2013-01-27 08:02:00,
2013-01-27 02:32:00,17.0,8.0,-100.00,SSE,147,6.0,15.0,67,0.00,,,0.00,0.000000,,2013-01-27 08:32:00,
2013-01-27 02:42:00,17.0,8.0,-100.00,SSE,147,6.0,15.0,67,0.00,,,0.00,0.000000,,2013-01-27 08:42:00,
2013-01-27 02:52:00,17.0,8.0,-100.00,SSE,147,6.0,15.0,67,0.00,,,0.00,0.000000,,2013-01-27 08:52:00,
2013-01-27 03:32:00,19.0,9.0,-100.00,SE,146,5.0,12.0,65,0.00,,,0.00,0.000000,,2013-01-27 09:32:00,
2013-01-27 03:42:00,19.0,9.0,-100.00,SE,146,5.0,12.0,65,0.00,,,0.00,0.000000,,2013-01-27 09:42:00,
2013-01-27 03:52:00,19.0,9.0,-100.00,SE,146,5.0,12.0,65,0.00,,,0.00,0.000000,,2013-01-27 09:52:00,
2013-01-27 04:01:00,19.0,9.0,-100.00,SE,146,5.0,12.0,65,0.00,,,0.00,0.000000,,2013-01-27 10:01:00,
2013-01-27 04:21:00,19.0,9.0,-100.00,SSE,147,6.0,12.0,65,0.00,,,0.00,0.000000,,2013-01-27 10:21:00,
2013-01-27 04:32:00,19.0,9.0,-100.00,SSE,147,6.0,12.0,65,0.00,,,0.00,0.000000,,2013-01-27 10:32:00,
2013-01-27 04:42:00,19.0,9.0,-100.00,SSE,147,6.0,12.0,65,0.00,,,0.00,0.000000,,2013-01-27 10:42:00,
2013-01-27 04:52:00,19.0,9.0,-100.00,SSE,147,6.0,12.0,65,0.00,,,0.00,0.000000,,2013-01-27 10:52:00,
2013-01-27 05:01:00,19.0,9.0,-100.00,SSE,147,6.0,12.0,65,0.00,,,0.00,0.000000,,2013-01-27 11:01:00,
2013-01-27 05:02:00,19.0,9.0,-100.00,SSE,148,7.0,12.0,65,0.00,,,0.00,0.000000,,2013-01-27 11:02:00,
2013-01-27 05:22:00,19.0,9.0,-100.00,SSE,148,7.0,12.0,65,0.00,,,0.00,0.000000,,2013-01-27 11:22:00,
2013-01-27 05:32:00,19.0,9.0,-100.00,SSE,148,7.0,12.0,65,0.00,,,0.00,0.000000,,2013-01-27 11:32:00,
2013-01-27 05:42:00,19.0,9.0,-100.00,SSE,148,7.0,12.0,65,0.00,,,0.00,0.000000,,2013-01-27 11:42:00,
2013-01-27 05:52:00,19.0,9.0,-100.00,SSE,148,7.0,12.0,65,0.00,,,0.00,0.000000,,2013-01-27 11:52:00,
2013-01-27 06:02:00,18.0,9.0,-100.00,SE,132,5.0,11.0,68,0.00,,,0.00,0.000000,,2013-01-27 12:02:00,
2013-01-27 06:22:00,18.0,9.0,-100.00,SE,132,5.0,11.0,68,0.00,,,0.00,0.000000,,2013-01-27 12:22:00,
2013-01-27 06:33:00,18.0,9.0,-100.00,SE,132,5.0,11.0,68,0.00,,,0.00,0.000000,,2013-01-27 12:33:00,
2013-01-27 06:42:00,18.0,9.0,-100.00,SE,132,5.0,11.0,68,0.00,,,0.00,0.000000,,2013-01-27 12:42:00,
2013-01-27 06:52:00,18.0,9.0,-100.00,SE,132,5.0,11.0,68,0.00,,,0.00,0.000000,,2013-01-27 12:52:00,
2013-01-27 07:02:00,17.0,9.0,-100.00,SE,133,5.0,8.0,70,0.00,,,0.00,0.000000,,2013-01-27 13:02:00,
2013-01-27 07:22:00,17.0,9.0,-100.00,SE,133,5.0,8.0,70,0.00,,,0.00,0.000000,,2013-01-27 13:22:00,
2013-01-27 07:32:00,17.0,9.0,-100.00,SE,133,5.0,8.0,70,0.00,,,0.00,0.000000,,2013-01-27 13:32:00,
2013-01-27 07:42:00,17.0,9.0,-100.00,SE,133,5.0,8.0,70,0.00,,,0.00,0.000000,,2013-01-27 13:42:00,
2013-01-27 07:52:00,17.0,9.0,-100.00,SE,133,5.0,8.0,70,0.00,,,0.00,0.000000,,2013-01-27 13:52:00,
2013-01-27 08:02:00,19.0,10.0,-100.00,SE,142,6.0,12.0,67,0.00,,,0.00,5.000000,,2013-01-27 14:02:00,
2013-01-27 08:53:00,19.0,10.0,-100.00,SE,142,6.0,12.0,67,0.00,,,0.00,5.000000,,2013-01-27 14:53:00,
2013-01-27 09:02:00,22.0,11.0,-100.00,SSE,153,6.0,12.0,63,0.00,,,0.00,50.000000,,2013-01-27 15:02:00,
2013-01-27 09:33:00,22.0,11.0,-100.00,SSE,153,6.0,12.0,63,0.00,,,0.00,50.000000,,2013-01-27 15:33:00,
2013-01-27 09:42:00,22.0,11.0,-100.00,SSE,153,6.0,12.0,63,0.00,,,0.00,50.000000,,2013-01-27 15:42:00,
2013-01-27 09:53:00,22.0,11.0,-100.00,SSE,153,6.0,12.0,63,0.00,,,0.00,50.000000,,2013-01-27 15:53:00,
2013-01-27 10:02:00,26.0,13.0,-100.00,SSE,158,7.0,14.0,57,0.00,,,0.00,110.000000,,2013-01-27 16:02:00,
2013-01-27 10:33:00,26.0,13.0,-100.00,SSE,158,7.0,14.0,57,0.00,,,0.00,110.000000,,2013-01-27 16:33:00,
2013-01-27 10:42:00,26.0,13.0,-100.00,SSE,158,7.0,14.0,57,0.00,,,0.00,110.000000,,2013-01-27 16:42:00,
2013-01-27 10:53:00,26.0,13.0,-100.00,SSE,158,7.0,14.0,57,0.00,,,0.00,110.000000,,2013-01-27 16:53:00,
2013-01-27 11:02:00,29.0,14.0,-100.00,SSE,156,6.0,14.0,52,0.00,,,0.00,160.000000,,2013-01-27 17:02:00,
2013-01-27 11:32:00,29.0,14.0,-100.00,SSE,156,6.0,14.0,52,0.00,,,0.00,160.000000,,2013-01-27 17:32:00,
2013-01-27 11:42:00,29.0,14.0,-100.00,SSE,156,6.0,14.0,52,0.00,,,0.00,160.000000,,2013-01-27 17:42:00,
2013-01-27 11:53:00,29.0,14.0,-100.00,SSE,156,6.0,14.0,52,0.00,,,0.00,160.000000,,2013-01-27 17:53:00,
2013-01-27 12:02:00,31.0,14.0,-100.00,SSE,157,6.0,15.0,48,0.00,,,0.00,167.000000,,2013-01-27 18:02:00,
2013-01-27 12:32:00,31.0,14.0,-100.00,SSE,157,6.0,15.0,48,0.00,,,0.00,167.000000,,2013-01-27 18:32:00,
2013-01-27 12:42:00,31.0,14.0,-100.00,SSE,157,6.0,15.0,48,0.00,,,0.00,167.000000,,2013-01-27 18:42:00,
2013-01-27 12:52:00,31.0,14.0,-100.00,SSE,157,6.0,15.0,48,0.00,,,0.00,167.000000,,2013-01-27 18:52:00,
2013-01-27 13:02:00,32.0,15.0,-100.00,South,171,6.0,15.0,48,0.00,,,0.00,175.000000,,2013-01-27 19:02:00,
2013-01-27 13:22:00,32.0,15.0,-100.00,South,171,6.0,15.0,48,0.00,,,0.00,175.000000,,2013-01-27 19:22:00,
2013-01-27 13:33:00,32.0,15.0,-100.00,South,171,6.0,15.0,48,0.00,,,0.00,175.000000,,2013-01-27 19:33:00,
2013-01-27 13:42:00,32.0,15.0,-100.00,South,171,6.0,15.0,48,0.00,,,0.00,175.000000,,2013-01-27 19:42:00,
2013-01-27 13:52:00,32.0,15.0,-100.00,South,171,6.0,15.0,48,0.00,,,0.00,175.000000,,2013-01-27 19:52:00,
2013-01-27 14:02:00,34.0,18.0,-100.00,SSE,162,5.0,13.0,52,0.01,,,0.01,180.000000,,2013-01-27 20:02:00,
2013-01-27 14:22:00,34.0,18.0,-100.00,SSE,162,5.0,13.0,52,0.01,,,0.01,180.000000,,2013-01-27 20:22:00,
2013-01-27 14:33:00,34.0,18.0,-100.00,SSE,162,5.0,13.0,52,0.01,,,0.01,180.000000,,2013-01-27 20:33:00,
2013-01-27 14:42:00,34.0,18.0,-100.00,SSE,162,5.0,13.0,52,0.01,,,0.01,180.000000,,2013-01-27 20:42:00,
2013-01-27 14:52:00,34.0,18.0,-100.00,SSE,162,5.0,13.0,52,0.01,,,0.01,180.000000,,2013-01-27 20:52:00,
2013-01-27 15:02:00,32.0,20.0,-100.00,SE,144,6.0,12.0,62,0.01,,,0.02,62.000000,,2013-01-27 21:02:00,
2013-01-27 15:33:00,32.0,20.0,-100.00,SE,144,6.0,12.0,62,0.01,,,0.02,62.000000,,2013-01-27 21:33:00,
2013-01-27 15:43:00,32.0,20.0,-100.00,SE,144,6.0,12.0,62,0.01,,,0.02,62.000000,,2013-01-27 21:43:00,
2013-01-27 15:52:00,32.0,20.0,-100.00,SE,144,6.0,12.0,62,0.01,,,0.02,62.000000,,2013-01-27 21:52:00,
2013-01-27 16:02:00,29.0,25.0,-100.00,SE,143,6.0,12.0,84,0.00,,,0.02,28.000000,,2013-01-27 22:02:00,
2013-01-27 16:22:00,29.0,25.0,-100.00,SE,143,6.0,12.0,84,0.00,,,0.02,28.000000,,2013-01-27 22:22:00,
2013-01-27 16:33:00,29.0,25.0,-100.00,SE,143,6.0,12.0,84,0.00,,,0.02,28.000000,,2013-01-27 22:33:00,
2013-01-27 16:42:00,29.0,25.0,-100.00,SE,143,6.0,12.0,84,0.00,,,0.02,28.000000,,2013-01-27 22:42:00,
2013-01-27 16:52:00,29.0,25.0,-100.00,SE,143,6.0,12.0,84,0.00,,,0.02,28.000000,,2013-01-27 22:52:00,
2013-01-27 17:02:00,28.0,26.0,-100.00,SE,129,6.0,13.0,91,0.00,,,0.02,12.000000,,2013-01-27 23:02:00,
2013-01-27 17:22:00,28.0,26.0,-100.00,SE,129,6.0,13.0,91,0.00,,,0.02,12.000000,,2013-01-27 23:22:00,
2013-01-27 17:32:00,28.0,26.0,-100.00,SE,129,6.0,13.0,91,0.00,,,0.02,12.000000,,2013-01-27 23:32:00,
2013-01-27 17:42:00,28.0,26.0,-100.00,SE,129,6.0,13.0,91,0.00,,,0.02,12.000000,,2013-01-27 23:42:00,
2013-01-27 17:53:00,28.0,26.0,-100.00,SE,129,6.0,13.0,91,0.00,,,0.02,12.000000,,2013-01-27 23:53:00,
2013-01-27 18:22:00,28.0,26.0,-100.00,SE,127,6.0,12.0,92,0.00,,,0.02,0.000000,,2013-01-28 00:22:00,
2013-01-27 18:33:00,28.0,26.0,-100.00,SE,127,6.0,12.0,92,0.00,,,0.02,0.000000,,2013-01-28 00:33:00,
2013-01-27 18:42:00,28.0,26.0,-100.00,SE,127,6.0,12.0,92,0.00,,,0.02,0.000000,,2013-01-28 00:42:00,
2013-01-27 18:52:00,28.0,26.0,-100.00,SE,127,6.0,12.0,92,0.00,,,0.02,0.000000,,2013-01-28 00:52:00,
2013-01-27 19:01:00,28.0,26.0,-100.00,SE,127,6.0,12.0,92,0.00,,,0.02,0.000000,,2013-01-28 01:01:00,
2013-01-27 19:02:00,27.0,25.0,-100.00,SE,128,5.0,10.0,93,0.00,,,0.02,0.000000,,2013-01-28 01:02:00,
2013-01-27 19:33:00,27.0,25.0,-100.00,SE,128,5.0,10.0,93,0.00,,,0.02,0.000000,,2013-01-28 01:33:00,
2013-01-27 19:42:00,27.0,25.0,-100.00,SE,128,5.0,10.0,93,0.00,,,0.02,0.000000,,2013-01-28 01:42:00,
2013-01-27 19:52:00,27.0,25.0,-100.00,SE,128,5.0,10.0,93,0.00,,,0.02,0.000000,,2013-01-28 01:52:00,
2013-01-27 20:02:00,27.0,25.0,-100.00,SE,127,5.0,9.0,93,0.00,,,0.02,0.000000,,2013-01-28 02:02:00,
2013-01-27 20:32:00,27.0,25.0,-100.00,SE,127,5.0,9.0,93,0.00,,,0.02,0.000000,,2013-01-28 02:32:00,
2013-01-27 20:42:00,27.0,25.0,-100.00,SE,127,5.0,9.0,93,0.00,,,0.02,0.000000,,2013-01-28 02:42:00,
2013-01-27 20:52:00,27.0,25.0,-100.00,SE,127,5.0,9.0,93,0.00,,,0.02,0.000000,,2013-01-28 02:52:00,
2013-01-27 21:02:00,27.0,26.0,-100.00,SE,137,5.0,9.0,94,0.00,,,0.02,0.000000,,2013-01-28 03:02:00,
2013-01-27 21:22:00,27.0,26.0,-100.00,SE,137,5.0,9.0,94,0.00,,,0.02,0.000000,,2013-01-28 03:22:00,
2013-01-27 21:32:00,27.0,26.0,-100.00,SE,137,5.0,9.0,94,0.00,,,0.02,0.000000,,2013-01-28 03:32:00,
2013-01-27 21:42:00,27.0,26.0,-100.00,SE,137,5.0,9.0,94,0.00,,,0.02,0.000000,,2013-01-28 03:42:00,
2013-01-27 21:53:00,27.0,26.0,-100.00,SE,137,5.0,9.0,94,0.00,,,0.02,0.000000,,2013-01-28 03:53:00,
2013-01-27 22:02:00,26.0,25.0,-100.00,SE,128,4.0,7.0,94,0.00,,,0.02,0.000000,,2013-01-28 04:02:00,
2013-01-27 22:22:00,26.0,25.0,-100.00,SE,128,4.0,7.0,94,0.00,,,0.02,0.000000,,2013-01-28 04:22:00,
2013-01-27 22:32:00,26.0,25.0,-100.00,SE,128,4.0,7.0,94,0.00,,,0.02,0.000000,,2013-01-28 04:32:00,
2013-01-27 22:42:00,26.0,25.0,-100.00,SE,128,4.0,7.0,94,0.00,,,0.02,0.000000,,2013-01-28 04:42:00,
2013-01-27 22:52:00,26.0,25.0,-100.00,SE,128,4.0,7.0,94,0.00,,,0.02,0.000000,,2013-01-28 04:52:00,
2013-01-27 23:02:00,26.0,25.0,-100.00,SE,132,3.0,8.0,94,0.00,,,0.02,0.000000,,2013-01-28 05:02:00,
2013-01-27 23:32:00,26.0,25.0,-100.00,SE,132,3.0,8.0,94,0.00,,,0.02,0.000000,,2013-01-28 05:32:00,
2013-01-27 23:42:00,26.0,25.0,-100.00,SE,132,3.0,8.0,94,0.00,,,0.02,0.000000,,2013-01-28 05:42:00,
2013-01-27 23:52:00,26.0,25.0,-100.00,SE,132,3.0,8.0,94,0.00,,,0.02,0.000000,,2013-01-28 05:52:00,